Pond Creek, Oklahoma
Current Conditions -  °F | °C
As of 6:15 AM on Sunday 23 Nov 2014 (Local Time) from KWDG Reporting Station
Broken Clouds Broken Clouds  
Wind Chill: 54°   Ceiling: 13000
Heat Index: 54°   Visibility: 10mi
Dew Point: 54°   Wind: 14mph
Humidity: 100%   Direction: 160°SSE
Pressure: 29.45"   Gusts: 23mph
Location:  36.67°N, 97.8°W
Report Text: KWDG 231215Z 16012G20KT 10SM BKN130 12/12 A2945 RMK FIRST
Loading
Personal Weather Stations






























Interactive Weather Map New forecast layout! Learn more

10-Day Weather Forecast

Advertisements
Track Severe Weather on mobile